sensor_id;sensor_type;location;lat;lon;timestamp;P1;durP1;ratioP1;P2;durP2;ratioP2
74630;SDS011;63138;55.082;38.804;2023-12-20T00:00:01;3.42;;;2.50;;
74630;SDS011;63138;55.082;38.804;2023-12-20T00:02:46;3.73;;;2.33;;
74630;SDS011;63138;55.082;38.804;2023-12-20T00:05:13;5.22;;;2.53;;
74630;SDS011;63138;55.082;38.804;2023-12-20T00:07:39;3.60;;;2.80;;
74630;SDS011;63138;55.082;38.804;2023-12-20T00:10:05;4.20;;;2.75;;
74630;SDS011;63138;55.082;38.804;2023-12-20T00:12:32;3.72;;;3.10;;
74630;SDS011;63138;55.082;38.804;2023-12-20T00:14:58;3.40;;;2.50;;
74630;SDS011;63138;55.082;38.804;2023-12-20T00:17:24;4.47;;;2.90;;
74630;SDS011;63138;55.082;38.804;2023-12-20T00:19:50;3.30;;;2.80;;
74630;SDS011;63138;55.082;38.804;2023-12-20T00:22:16;3.72;;;3.05;;
74630;SDS011;63138;55.082;38.804;2023-12-20T00:24:41;3.22;;;2.63;;
74630;SDS011;63138;55.082;38.804;2023-12-20T00:27:07;3.42;;;2.85;;
74630;SDS011;63138;55.082;38.804;2023-12-20T00:29:37;4.97;;;2.92;;
74630;SDS011;63138;55.082;38.804;2023-12-20T00:32:02;4.25;;;3.28;;
74630;SDS011;63138;55.082;38.804;2023-12-20T00:34:29;3.43;;;2.57;;
74630;SDS011;63138;55.082;38.804;2023-12-20T00:36:55;4.63;;;2.70;;
74630;SDS011;63138;55.082;38.804;2023-12-20T00:39:21;3.75;;;2.70;;
74630;SDS011;63138;55.082;38.804;2023-12-20T00:41:47;4.13;;;2.80;;
74630;SDS011;63138;55.082;38.804;2023-12-20T00:44:13;3.30;;;2.67;;
74630;SDS011;63138;55.082;38.804;2023-12-20T00:46:39;6.97;;;2.92;;
74630;SDS011;63138;55.082;38.804;2023-12-20T00:49:05;3.83;;;2.90;;
74630;SDS011;63138;55.082;38.804;2023-12-20T00:51:31;3.80;;;3.22;;
74630;SDS011;63138;55.082;38.804;2023-12-20T00:53:57;5.57;;;3.38;;
74630;SDS011;63138;55.082;38.804;2023-12-20T00:56:22;3.55;;;2.53;;
74630;SDS011;63138;55.082;38.804;2023-12-20T00:58:49;3.47;;;2.88;;
74630;SDS011;63138;55.082;38.804;2023-12-20T01:01:15;3.78;;;3.08;;
74630;SDS011;63138;55.082;38.804;2023-12-20T01:03:41;3.70;;;2.53;;
74630;SDS011;63138;55.082;38.804;2023-12-20T01:06:07;5.63;;;3.20;;
74630;SDS011;63138;55.082;38.804;2023-12-20T01:08:33;3.45;;;2.60;;
74630;SDS011;63138;55.082;38.804;2023-12-20T01:11:00;4.88;;;3.17;;
74630;SDS011;63138;55.082;38.804;2023-12-20T01:13:29;4.00;;;3.10;;
74630;SDS011;63138;55.082;38.804;2023-12-20T01:15:55;5.68;;;2.95;;
74630;SDS011;63138;55.082;38.804;2023-12-20T01:18:20;3.73;;;2.87;;
74630;SDS011;63138;55.082;38.804;2023-12-20T01:20:46;4.93;;;2.83;;
74630;SDS011;63138;55.082;38.804;2023-12-20T01:23:12;4.40;;;3.08;;
74630;SDS011;63138;55.082;38.804;2023-12-20T01:25:38;3.50;;;2.50;;
74630;SDS011;63138;55.082;38.804;2023-12-20T01:28:04;3.85;;;2.90;;
74630;SDS011;63138;55.082;38.804;2023-12-20T01:30:30;4.40;;;2.90;;
74630;SDS011;63138;55.082;38.804;2023-12-20T01:32:56;4.67;;;3.00;;
74630;SDS011;63138;55.082;38.804;2023-12-20T01:35:22;3.30;;;2.60;;
74630;SDS011;63138;55.082;38.804;2023-12-20T01:37:48;4.15;;;3.08;;
74630;SDS011;63138;55.082;38.804;2023-12-20T01:40:14;4.07;;;3.03;;
74630;SDS011;63138;55.082;38.804;2023-12-20T01:42:40;3.58;;;2.88;;
74630;SDS011;63138;55.082;38.804;2023-12-20T01:45:07;3.97;;;3.30;;
74630;SDS011;63138;55.082;38.804;2023-12-20T01:47:33;5.10;;;3.20;;
74630;SDS011;63138;55.082;38.804;2023-12-20T01:49:59;4.00;;;3.20;;
74630;SDS011;63138;55.082;38.804;2023-12-20T01:52:30;4.40;;;3.35;;
74630;SDS011;63138;55.082;38.804;2023-12-20T01:54:56;3.88;;;2.92;;
74630;SDS011;63138;55.082;38.804;2023-12-20T01:57:29;4.90;;;3.55;;
74630;SDS011;63138;55.082;38.804;2023-12-20T01:59:56;4.28;;;3.30;;
74630;SDS011;63138;55.082;38.804;2023-12-20T02:02:22;4.15;;;3.00;;
74630;SDS011;63138;55.082;38.804;2023-12-20T02:04:48;4.00;;;3.10;;
74630;SDS011;63138;55.082;38.804;2023-12-20T02:07:16;3.83;;;2.75;;
74630;SDS011;63138;55.082;38.804;2023-12-20T02:09:43;4.93;;;3.00;;
74630;SDS011;63138;55.082;38.804;2023-12-20T02:12:09;4.40;;;3.17;;
74630;SDS011;63138;55.082;38.804;2023-12-20T02:14:36;4.53;;;3.47;;
74630;SDS011;63138;55.082;38.804;2023-12-20T02:17:02;3.78;;;2.95;;
74630;SDS011;63138;55.082;38.804;2023-12-20T02:19:53;3.25;;;2.47;;
74630;SDS011;63138;55.082;38.804;2023-12-20T02:22:19;5.75;;;3.58;;
74630;SDS011;63138;55.082;38.804;2023-12-20T02:24:45;4.22;;;2.95;;
74630;SDS011;63138;55.082;38.804;2023-12-20T02:27:10;4.47;;;3.20;;
74630;SDS011;63138;55.082;38.804;2023-12-20T02:29:37;4.88;;;3.65;;
74630;SDS011;63138;55.082;38.804;2023-12-20T02:32:03;5.87;;;3.67;;
74630;SDS011;63138;55.082;38.804;2023-12-20T02:34:29;4.68;;;2.72;;
74630;SDS011;63138;55.082;38.804;2023-12-20T02:36:55;4.60;;;2.80;;
74630;SDS011;63138;55.082;38.804;2023-12-20T02:39:21;4.90;;;3.10;;
74630;SDS011;63138;55.082;38.804;2023-12-20T02:41:48;5.43;;;3.00;;
74630;SDS011;63138;55.082;38.804;2023-12-20T02:44:14;4.95;;;3.65;;
74630;SDS011;63138;55.082;38.804;2023-12-20T02:46:40;4.80;;;3.30;;
74630;SDS011;63138;55.082;38.804;2023-12-20T02:49:06;5.03;;;3.13;;
74630;SDS011;63138;55.082;38.804;2023-12-20T02:51:33;3.90;;;2.90;;
74630;SDS011;63138;55.082;38.804;2023-12-20T02:53:58;5.38;;;3.53;;
74630;SDS011;63138;55.082;38.804;2023-12-20T02:56:24;5.20;;;3.20;;
74630;SDS011;63138;55.082;38.804;2023-12-20T02:58:50;4.68;;;3.30;;
74630;SDS011;63138;55.082;38.804;2023-12-20T03:01:16;4.03;;;3.00;;
74630;SDS011;63138;55.082;38.804;2023-12-20T03:03:42;3.95;;;2.95;;
74630;SDS011;63138;55.082;38.804;2023-12-20T03:06:07;4.53;;;3.70;;
74630;SDS011;63138;55.082;38.804;2023-12-20T03:08:33;5.03;;;3.70;;
74630;SDS011;63138;55.082;38.804;2023-12-20T03:10:59;4.35;;;3.17;;
74630;SDS011;63138;55.082;38.804;2023-12-20T03:13:25;5.25;;;3.88;;
74630;SDS011;63138;55.082;38.804;2023-12-20T03:15:52;4.60;;;3.47;;
74630;SDS011;63138;55.082;38.804;2023-12-20T03:18:17;4.28;;;3.38;;
74630;SDS011;63138;55.082;38.804;2023-12-20T03:20:43;4.40;;;3.47;;
74630;SDS011;63138;55.082;38.804;2023-12-20T03:23:09;5.68;;;3.28;;
74630;SDS011;63138;55.082;38.804;2023-12-20T03:25:35;3.78;;;2.97;;
74630;SDS011;63138;55.082;38.804;2023-12-20T03:28:01;4.20;;;3.37;;
74630;SDS011;63138;55.082;38.804;2023-12-20T03:30:27;7.00;;;3.83;;
74630;SDS011;63138;55.082;38.804;2023-12-20T03:32:53;4.22;;;3.25;;
74630;SDS011;63138;55.082;38.804;2023-12-20T03:35:19;5.82;;;3.80;;
74630;SDS011;63138;55.082;38.804;2023-12-20T03:37:45;4.00;;;3.37;;
74630;SDS011;63138;55.082;38.804;2023-12-20T03:40:11;5.90;;;4.50;;
74630;SDS011;63138;55.082;38.804;2023-12-20T03:42:37;4.75;;;3.50;;
74630;SDS011;63138;55.082;38.804;2023-12-20T03:45:03;4.90;;;3.40;;
74630;SDS011;63138;55.082;38.804;2023-12-20T03:47:30;5.75;;;3.42;;
74630;SDS011;63138;55.082;38.804;2023-12-20T03:49:55;4.47;;;3.58;;
74630;SDS011;63138;55.082;38.804;2023-12-20T03:52:21;5.20;;;3.60;;
74630;SDS011;63138;55.082;38.804;2023-12-20T03:54:47;3.45;;;2.72;;
74630;SDS011;63138;55.082;38.804;2023-12-20T03:57:13;3.73;;;3.10;;
74630;SDS011;63138;55.082;38.804;2023-12-20T03:59:39;4.22;;;3.40;;
74630;SDS011;63138;55.082;38.804;2023-12-20T04:02:06;3.60;;;2.88;;
74630;SDS011;63138;55.082;38.804;2023-12-20T04:04:32;4.88;;;3.25;;
74630;SDS011;63138;55.082;38.804;2023-12-20T04:07:16;4.63;;;3.40;;
74630;SDS011;63138;55.082;38.804;2023-12-20T04:09:42;3.88;;;3.40;;
74630;SDS011;63138;55.082;38.804;2023-12-20T04:12:08;4.90;;;2.45;;
74630;SDS011;63138;55.082;38.804;2023-12-20T04:14:34;4.43;;;3.10;;
74630;SDS011;63138;55.082;38.804;2023-12-20T04:16:59;4.55;;;3.72;;
74630;SDS011;63138;55.082;38.804;2023-12-20T04:19:25;4.63;;;3.50;;
74630;SDS011;63138;55.082;38.804;2023-12-20T04:21:51;5.73;;;4.00;;
74630;SDS011;63138;55.082;38.804;2023-12-20T04:24:17;5.50;;;3.60;;
74630;SDS011;63138;55.082;38.804;2023-12-20T04:26:43;6.18;;;4.35;;
74630;SDS011;63138;55.082;38.804;2023-12-20T04:29:09;4.38;;;3.50;;
74630;SDS011;63138;55.082;38.804;2023-12-20T04:31:35;5.22;;;4.07;;
74630;SDS011;63138;55.082;38.804;2023-12-20T04:34:02;5.35;;;4.28;;
74630;SDS011;63138;55.082;38.804;2023-12-20T04:36:28;4.75;;;3.40;;
74630;SDS011;63138;55.082;38.804;2023-12-20T04:38:55;4.43;;;3.58;;
74630;SDS011;63138;55.082;38.804;2023-12-20T04:41:21;6.73;;;4.43;;
74630;SDS011;63138;55.082;38.804;2023-12-20T04:43:47;4.32;;;3.47;;
74630;SDS011;63138;55.082;38.804;2023-12-20T04:46:13;7.38;;;3.72;;
74630;SDS011;63138;55.082;38.804;2023-12-20T04:48:39;6.50;;;4.60;;
74630;SDS011;63138;55.082;38.804;2023-12-20T04:51:05;5.75;;;4.38;;
74630;SDS011;63138;55.082;38.804;2023-12-20T04:53:31;7.50;;;5.40;;
74630;SDS011;63138;55.082;38.804;2023-12-20T04:55:57;6.80;;;4.28;;
74630;SDS011;63138;55.082;38.804;2023-12-20T04:58:23;6.22;;;4.43;;
74630;SDS011;63138;55.082;38.804;2023-12-20T05:00:49;7.20;;;4.30;;
74630;SDS011;63138;55.082;38.804;2023-12-20T05:03:15;5.05;;;4.00;;
74630;SDS011;63138;55.082;38.804;2023-12-20T05:05:41;6.97;;;3.77;;
74630;SDS011;63138;55.082;38.804;2023-12-20T05:08:06;6.07;;;4.47;;
74630;SDS011;63138;55.082;38.804;2023-12-20T05:10:32;6.90;;;4.45;;
74630;SDS011;63138;55.082;38.804;2023-12-20T05:12:59;6.17;;;4.17;;
74630;SDS011;63138;55.082;38.804;2023-12-20T05:15:25;6.05;;;4.43;;
74630;SDS011;63138;55.082;38.804;2023-12-20T05:17:51;6.43;;;4.63;;
74630;SDS011;63138;55.082;38.804;2023-12-20T05:20:18;6.70;;;4.68;;
74630;SDS011;63138;55.082;38.804;2023-12-20T05:22:43;8.67;;;4.93;;
74630;SDS011;63138;55.082;38.804;2023-12-20T05:25:10;5.80;;;4.30;;
74630;SDS011;63138;55.082;38.804;2023-12-20T05:27:36;7.47;;;4.47;;
74630;SDS011;63138;55.082;38.804;2023-12-20T05:30:02;5.75;;;4.13;;
74630;SDS011;63138;55.082;38.804;2023-12-20T05:32:30;5.78;;;4.35;;
74630;SDS011;63138;55.082;38.804;2023-12-20T05:34:56;6.32;;;4.32;;
74630;SDS011;63138;55.082;38.804;2023-12-20T05:37:22;6.68;;;4.43;;
74630;SDS011;63138;55.082;38.804;2023-12-20T05:39:49;5.82;;;3.90;;
74630;SDS011;63138;55.082;38.804;2023-12-20T05:42:15;6.37;;;4.43;;
74630;SDS011;63138;55.082;38.804;2023-12-20T05:44:40;6.03;;;4.03;;
74630;SDS011;63138;55.082;38.804;2023-12-20T05:47:06;5.10;;;3.63;;
74630;SDS011;63138;55.082;38.804;2023-12-20T05:49:32;5.57;;;4.07;;
74630;SDS011;63138;55.082;38.804;2023-12-20T05:51:58;4.63;;;3.97;;
74630;SDS011;63138;55.082;38.804;2023-12-20T05:54:25;7.13;;;5.20;;
74630;SDS011;63138;55.082;38.804;2023-12-20T05:56:51;5.72;;;3.85;;
74630;SDS011;63138;55.082;38.804;2023-12-20T05:59:17;5.75;;;4.57;;
74630;SDS011;63138;55.082;38.804;2023-12-20T06:01:44;6.83;;;3.80;;
74630;SDS011;63138;55.082;38.804;2023-12-20T06:04:09;5.30;;;3.92;;
74630;SDS011;63138;55.082;38.804;2023-12-20T06:06:40;5.35;;;3.90;;
74630;SDS011;63138;55.082;38.804;2023-12-20T06:09:07;6.93;;;3.85;;
74630;SDS011;63138;55.082;38.804;2023-12-20T06:11:33;4.50;;;3.87;;
74630;SDS011;63138;55.082;38.804;2023-12-20T06:13:59;5.22;;;4.13;;
74630;SDS011;63138;55.082;38.804;2023-12-20T06:16:25;4.45;;;3.53;;
74630;SDS011;63138;55.082;38.804;2023-12-20T06:18:51;6.18;;;4.15;;
74630;SDS011;63138;55.082;38.804;2023-12-20T06:21:17;7.83;;;4.87;;
74630;SDS011;63138;55.082;38.804;2023-12-20T06:23:43;7.43;;;5.43;;
74630;SDS011;63138;55.082;38.804;2023-12-20T06:26:09;8.02;;;4.93;;
74630;SDS011;63138;55.082;38.804;2023-12-20T06:28:35;5.73;;;4.33;;
74630;SDS011;63138;55.082;38.804;2023-12-20T06:31:01;8.15;;;4.65;;
74630;SDS011;63138;55.082;38.804;2023-12-20T06:33:27;7.13;;;5.20;;
74630;SDS011;63138;55.082;38.804;2023-12-20T06:35:53;7.95;;;4.35;;
74630;SDS011;63138;55.082;38.804;2023-12-20T06:38:19;8.93;;;5.72;;
74630;SDS011;63138;55.082;38.804;2023-12-20T06:40:46;6.70;;;4.40;;
74630;SDS011;63138;55.082;38.804;2023-12-20T06:43:12;6.47;;;4.10;;
74630;SDS011;63138;55.082;38.804;2023-12-20T06:45:38;6.60;;;4.78;;
74630;SDS011;63138;55.082;38.804;2023-12-20T06:48:05;7.57;;;4.55;;
74630;SDS011;63138;55.082;38.804;2023-12-20T06:50:31;6.53;;;4.63;;
74630;SDS011;63138;55.082;38.804;2023-12-20T06:52:57;6.72;;;3.95;;
74630;SDS011;63138;55.082;38.804;2023-12-20T06:55:23;7.53;;;4.72;;
74630;SDS011;63138;55.082;38.804;2023-12-20T06:57:49;6.38;;;4.55;;
74630;SDS011;63138;55.082;38.804;2023-12-20T07:00:15;8.05;;;4.72;;
74630;SDS011;63138;55.082;38.804;2023-12-20T07:02:43;6.68;;;4.65;;
74630;SDS011;63138;55.082;38.804;2023-12-20T07:05:09;6.28;;;4.50;;
74630;SDS011;63138;55.082;38.804;2023-12-20T07:07:35;7.43;;;4.93;;
74630;SDS011;63138;55.082;38.804;2023-12-20T07:10:01;4.97;;;4.18;;
74630;SDS011;63138;55.082;38.804;2023-12-20T07:12:29;6.78;;;4.35;;
74630;SDS011;63138;55.082;38.804;2023-12-20T07:14:55;6.28;;;4.50;;
74630;SDS011;63138;55.082;38.804;2023-12-20T07:17:22;6.75;;;4.40;;
74630;SDS011;63138;55.082;38.804;2023-12-20T07:19:48;5.35;;;4.35;;
74630;SDS011;63138;55.082;38.804;2023-12-20T07:22:14;5.38;;;4.18;;
74630;SDS011;63138;55.082;38.804;2023-12-20T07:24:40;9.40;;;4.67;;
74630;SDS011;63138;55.082;38.804;2023-12-20T07:27:05;6.05;;;3.83;;
74630;SDS011;63138;55.082;38.804;2023-12-20T07:29:50;8.82;;;4.57;;
74630;SDS011;63138;55.082;38.804;2023-12-20T07:32:16;7.47;;;5.05;;
74630;SDS011;63138;55.082;38.804;2023-12-20T07:34:42;6.10;;;3.90;;
74630;SDS011;63138;55.082;38.804;2023-12-20T07:37:09;6.28;;;4.28;;
74630;SDS011;63138;55.082;38.804;2023-12-20T07:39:38;6.15;;;4.65;;
74630;SDS011;63138;55.082;38.804;2023-12-20T07:42:09;5.38;;;4.38;;
74630;SDS011;63138;55.082;38.804;2023-12-20T07:44:35;4.55;;;3.88;;
74630;SDS011;63138;55.082;38.804;2023-12-20T07:47:01;6.10;;;4.57;;
74630;SDS011;63138;55.082;38.804;2023-12-20T07:49:27;5.68;;;4.50;;
74630;SDS011;63138;55.082;38.804;2023-12-20T07:51:53;6.10;;;4.72;;
74630;SDS011;63138;55.082;38.804;2023-12-20T07:54:19;6.13;;;4.70;;
74630;SDS011;63138;55.082;38.804;2023-12-20T07:56:46;6.57;;;4.87;;
74630;SDS011;63138;55.082;38.804;2023-12-20T07:59:13;5.00;;;4.18;;
74630;SDS011;63138;55.082;38.804;2023-12-20T08:01:39;6.38;;;4.32;;
74630;SDS011;63138;55.082;38.804;2023-12-20T08:04:06;5.40;;;4.43;;
74630;SDS011;63138;55.082;38.804;2023-12-20T08:06:31;5.00;;;3.70;;
74630;SDS011;63138;55.082;38.804;2023-12-20T08:08:58;6.10;;;4.03;;
74630;SDS011;63138;55.082;38.804;2023-12-20T08:11:23;4.75;;;3.92;;
74630;SDS011;63138;55.082;38.804;2023-12-20T08:13:49;5.37;;;4.20;;
74630;SDS011;63138;55.082;38.804;2023-12-20T08:16:15;4.85;;;3.92;;
74630;SDS011;63138;55.082;38.804;2023-12-20T08:18:43;5.32;;;4.22;;
74630;SDS011;63138;55.082;38.804;2023-12-20T08:21:10;6.75;;;5.10;;
74630;SDS011;63138;55.082;38.804;2023-12-20T08:23:37;6.07;;;4.38;;
74630;SDS011;63138;55.082;38.804;2023-12-20T08:26:06;5.03;;;4.53;;
74630;SDS011;63138;55.082;38.804;2023-12-20T08:28:32;5.60;;;4.30;;
74630;SDS011;63138;55.082;38.804;2023-12-20T08:30:59;6.90;;;4.05;;
74630;SDS011;63138;55.082;38.804;2023-12-20T08:33:25;6.07;;;4.25;;
74630;SDS011;63138;55.082;38.804;2023-12-20T08:35:51;6.63;;;3.70;;
74630;SDS011;63138;55.082;38.804;2023-12-20T08:38:17;5.85;;;4.13;;
74630;SDS011;63138;55.082;38.804;2023-12-20T08:40:44;5.55;;;4.10;;
74630;SDS011;63138;55.082;38.804;2023-12-20T08:43:10;5.35;;;3.97;;
74630;SDS011;63138;55.082;38.804;2023-12-20T08:45:36;5.35;;;4.20;;
74630;SDS011;63138;55.082;38.804;2023-12-20T08:48:04;4.93;;;4.13;;
74630;SDS011;63138;55.082;38.804;2023-12-20T08:50:30;5.85;;;4.30;;
74630;SDS011;63138;55.082;38.804;2023-12-20T08:52:57;5.45;;;4.03;;
74630;SDS011;63138;55.082;38.804;2023-12-20T08:55:23;5.45;;;4.25;;
74630;SDS011;63138;55.082;38.804;2023-12-20T08:57:48;5.00;;;3.83;;
74630;SDS011;63138;55.082;38.804;2023-12-20T09:00:16;6.53;;;4.13;;
74630;SDS011;63138;55.082;38.804;2023-12-20T09:02:42;5.72;;;4.75;;
74630;SDS011;63138;55.082;38.804;2023-12-20T09:05:10;4.60;;;3.60;;
74630;SDS011;63138;55.082;38.804;2023-12-20T09:07:36;5.10;;;4.15;;
74630;SDS011;63138;55.082;38.804;2023-12-20T09:10:04;7.07;;;4.47;;
74630;SDS011;63138;55.082;38.804;2023-12-20T09:12:30;5.38;;;4.25;;
74630;SDS011;63138;55.082;38.804;2023-12-20T09:14:56;5.63;;;4.13;;
74630;SDS011;63138;55.082;38.804;2023-12-20T09:17:22;5.70;;;3.77;;
74630;SDS011;63138;55.082;38.804;2023-12-20T09:19:48;5.55;;;4.25;;
74630;SDS011;63138;55.082;38.804;2023-12-20T09:22:15;7.80;;;4.72;;
74630;SDS011;63138;55.082;38.804;2023-12-20T09:24:40;7.25;;;5.13;;
74630;SDS011;63138;55.082;38.804;2023-12-20T09:27:06;6.13;;;4.50;;
74630;SDS011;63138;55.082;38.804;2023-12-20T09:29:33;6.20;;;4.80;;
74630;SDS011;63138;55.082;38.804;2023-12-20T09:31:59;5.78;;;4.53;;
74630;SDS011;63138;55.082;38.804;2023-12-20T09:34:25;6.10;;;4.10;;
74630;SDS011;63138;55.082;38.804;2023-12-20T09:36:56;25.50;;;6.07;;
74630;SDS011;63138;55.082;38.804;2023-12-20T09:39:22;5.78;;;4.00;;
74630;SDS011;63138;55.082;38.804;2023-12-20T09:41:51;7.30;;;4.20;;
74630;SDS011;63138;55.082;38.804;2023-12-20T09:44:27;5.90;;;4.20;;
74630;SDS011;63138;55.082;38.804;2023-12-20T09:46:54;4.82;;;3.58;;
74630;SDS011;63138;55.082;38.804;2023-12-20T09:49:22;4.70;;;3.72;;
74630;SDS011;63138;55.082;38.804;2023-12-20T09:51:53;5.63;;;4.18;;
74630;SDS011;63138;55.082;38.804;2023-12-20T09:54:21;7.43;;;4.25;;
74630;SDS011;63138;55.082;38.804;2023-12-20T09:56:47;5.63;;;3.33;;
74630;SDS011;63138;55.082;38.804;2023-12-20T09:59:13;4.72;;;3.58;;
74630;SDS011;63138;55.082;38.804;2023-12-20T10:01:40;6.53;;;4.40;;
74630;SDS011;63138;55.082;38.804;2023-12-20T10:04:07;5.93;;;3.95;;
74630;SDS011;63138;55.082;38.804;2023-12-20T10:06:39;5.57;;;4.35;;
74630;SDS011;63138;55.082;38.804;2023-12-20T10:09:05;5.05;;;4.20;;
74630;SDS011;63138;55.082;38.804;2023-12-20T10:11:32;6.32;;;4.40;;
74630;SDS011;63138;55.082;38.804;2023-12-20T10:14:01;4.57;;;3.92;;
74630;SDS011;63138;55.082;38.804;2023-12-20T10:16:27;4.80;;;4.30;;
74630;SDS011;63138;55.082;38.804;2023-12-20T10:18:54;5.60;;;4.43;;
74630;SDS011;63138;55.082;38.804;2023-12-20T10:21:21;4.50;;;3.80;;
74630;SDS011;63138;55.082;38.804;2023-12-20T10:23:49;5.80;;;3.90;;
74630;SDS011;63138;55.082;38.804;2023-12-20T10:26:19;5.03;;;3.80;;
74630;SDS011;63138;55.082;38.804;2023-12-20T10:28:46;4.53;;;3.60;;
74630;SDS011;63138;55.082;38.804;2023-12-20T10:31:35;5.07;;;3.90;;
74630;SDS011;63138;55.082;38.804;2023-12-20T10:34:02;5.07;;;4.03;;
74630;SDS011;63138;55.082;38.804;2023-12-20T10:36:30;5.35;;;3.95;;
74630;SDS011;63138;55.082;38.804;2023-12-20T10:38:57;6.95;;;3.80;;
74630;SDS011;63138;55.082;38.804;2023-12-20T10:41:30;5.78;;;3.88;;
74630;SDS011;63138;55.082;38.804;2023-12-20T10:44:06;5.05;;;4.20;;
74630;SDS011;63138;55.082;38.804;2023-12-20T10:46:33;5.37;;;4.13;;
74630;SDS011;63138;55.082;38.804;2023-12-20T10:49:03;5.35;;;4.00;;
74630;SDS011;63138;55.082;38.804;2023-12-20T10:51:31;4.68;;;3.92;;
74630;SDS011;63138;55.082;38.804;2023-12-20T10:53:59;7.22;;;4.78;;
74630;SDS011;63138;55.082;38.804;2023-12-20T10:56:25;5.75;;;4.32;;
74630;SDS011;63138;55.082;38.804;2023-12-20T10:58:58;6.57;;;3.97;;
74630;SDS011;63138;55.082;38.804;2023-12-20T11:01:31;5.40;;;3.70;;
74630;SDS011;63138;55.082;38.804;2023-12-20T11:04:02;6.13;;;4.18;;
74630;SDS011;63138;55.082;38.804;2023-12-20T11:14:51;6.68;;;4.50;;
74630;SDS011;63138;55.082;38.804;2023-12-20T11:17:22;5.22;;;3.90;;
74630;SDS011;63138;55.082;38.804;2023-12-20T11:22:31;10.30;;;5.38;;
74630;SDS011;63138;55.082;38.804;2023-12-20T11:24:59;5.15;;;4.35;;
74630;SDS011;63138;55.082;38.804;2023-12-20T11:27:34;7.63;;;4.57;;
74630;SDS011;63138;55.082;38.804;2023-12-20T11:30:02;7.55;;;5.10;;
74630;SDS011;63138;55.082;38.804;2023-12-20T11:32:33;7.25;;;4.68;;
74630;SDS011;63138;55.082;38.804;2023-12-20T11:37:32;6.75;;;4.07;;
74630;SDS011;63138;55.082;38.804;2023-12-20T11:40:11;5.50;;;4.70;;
74630;SDS011;63138;55.082;38.804;2023-12-20T11:42:49;5.97;;;4.35;;
74630;SDS011;63138;55.082;38.804;2023-12-20T11:45:21;6.88;;;4.68;;
74630;SDS011;63138;55.082;38.804;2023-12-20T11:47:50;7.57;;;5.22;;
74630;SDS011;63138;55.082;38.804;2023-12-20T11:50:19;10.30;;;6.20;;
74630;SDS011;63138;55.082;38.804;2023-12-20T11:52:45;7.43;;;5.15;;
74630;SDS011;63138;55.082;38.804;2023-12-20T11:55:12;6.35;;;5.32;;
74630;SDS011;63138;55.082;38.804;2023-12-20T11:57:38;8.35;;;5.13;;
74630;SDS011;63138;55.082;38.804;2023-12-20T12:00:04;8.60;;;5.45;;
74630;SDS011;63138;55.082;38.804;2023-12-20T12:02:38;6.95;;;5.50;;
74630;SDS011;63138;55.082;38.804;2023-12-20T12:05:06;8.90;;;6.07;;
74630;SDS011;63138;55.082;38.804;2023-12-20T12:07:33;9.30;;;6.50;;
74630;SDS011;63138;55.082;38.804;2023-12-20T12:10:00;7.97;;;5.88;;
74630;SDS011;63138;55.082;38.804;2023-12-20T12:12:28;10.15;;;5.80;;
74630;SDS011;63138;55.082;38.804;2023-12-20T12:14:55;8.02;;;5.70;;
74630;SDS011;63138;55.082;38.804;2023-12-20T12:17:41;5.95;;;3.95;;
74630;SDS011;63138;55.082;38.804;2023-12-20T12:20:07;9.13;;;6.00;;
74630;SDS011;63138;55.082;38.804;2023-12-20T12:22:35;6.82;;;5.25;;
74630;SDS011;63138;55.082;38.804;2023-12-20T12:25:11;10.33;;;4.80;;
74630;SDS011;63138;55.082;38.804;2023-12-20T12:27:40;6.45;;;4.78;;
74630;SDS011;63138;55.082;38.804;2023-12-20T12:30:07;7.53;;;5.18;;
74630;SDS011;63138;55.082;38.804;2023-12-20T12:32:36;7.35;;;4.35;;
74630;SDS011;63138;55.082;38.804;2023-12-20T12:35:05;6.60;;;4.03;;
74630;SDS011;63138;55.082;38.804;2023-12-20T12:37:33;6.50;;;4.27;;
74630;SDS011;63138;55.082;38.804;2023-12-20T12:40:00;7.28;;;4.18;;
74630;SDS011;63138;55.082;38.804;2023-12-20T12:42:30;6.47;;;4.20;;
74630;SDS011;63138;55.082;38.804;2023-12-20T12:44:57;7.65;;;4.07;;
74630;SDS011;63138;55.082;38.804;2023-12-20T12:47:24;4.90;;;3.85;;
74630;SDS011;63138;55.082;38.804;2023-12-20T12:49:50;6.77;;;4.13;;
74630;SDS011;63138;55.082;38.804;2023-12-20T12:52:18;6.35;;;4.10;;
74630;SDS011;63138;55.082;38.804;2023-12-20T12:54:45;5.57;;;3.95;;
74630;SDS011;63138;55.082;38.804;2023-12-20T12:57:13;6.55;;;4.25;;
74630;SDS011;63138;55.082;38.804;2023-12-20T12:59:40;10.85;;;4.75;;
74630;SDS011;63138;55.082;38.804;2023-12-20T13:02:06;6.90;;;3.83;;
74630;SDS011;63138;55.082;38.804;2023-12-20T13:04:33;5.43;;;4.13;;
74630;SDS011;63138;55.082;38.804;2023-12-20T13:06:59;7.82;;;5.68;;
74630;SDS011;63138;55.082;38.804;2023-12-20T13:09:25;12.73;;;10.98;;
74630;SDS011;63138;55.082;38.804;2023-12-20T13:11:51;19.05;;;14.85;;
74630;SDS011;63138;55.082;38.804;2023-12-20T13:14:21;22.40;;;15.93;;
74630;SDS011;63138;55.082;38.804;2023-12-20T13:16:48;21.08;;;15.70;;
74630;SDS011;63138;55.082;38.804;2023-12-20T13:19:14;11.38;;;9.07;;
74630;SDS011;63138;55.082;38.804;2023-12-20T13:21:39;10.87;;;8.53;;
74630;SDS011;63138;55.082;38.804;2023-12-20T13:24:05;14.50;;;7.55;;
74630;SDS011;63138;55.082;38.804;2023-12-20T13:26:31;10.55;;;6.65;;
74630;SDS011;63138;55.082;38.804;2023-12-20T13:28:58;13.02;;;7.30;;
74630;SDS011;63138;55.082;38.804;2023-12-20T13:31:24;10.95;;;6.22;;
74630;SDS011;63138;55.082;38.804;2023-12-20T13:33:50;20.87;;;7.53;;
74630;SDS011;63138;55.082;38.804;2023-12-20T13:36:17;16.27;;;6.40;;
74630;SDS011;63138;55.082;38.804;2023-12-20T13:38:44;13.70;;;7.22;;
74630;SDS011;63138;55.082;38.804;2023-12-20T13:41:10;21.30;;;7.78;;
74630;SDS011;63138;55.082;38.804;2023-12-20T13:43:37;22.47;;;9.20;;
74630;SDS011;63138;55.082;38.804;2023-12-20T13:46:03;14.00;;;7.20;;
74630;SDS011;63138;55.082;38.804;2023-12-20T13:48:31;17.95;;;7.22;;
74630;SDS011;63138;55.082;38.804;2023-12-20T13:50:56;9.95;;;6.28;;
74630;SDS011;63138;55.082;38.804;2023-12-20T13:53:22;6.37;;;4.63;;
74630;SDS011;63138;55.082;38.804;2023-12-20T13:55:49;11.43;;;4.88;;
74630;SDS011;63138;55.082;38.804;2023-12-20T13:58:15;5.53;;;3.88;;
74630;SDS011;63138;55.082;38.804;2023-12-20T14:00:42;6.65;;;4.22;;
74630;SDS011;63138;55.082;38.804;2023-12-20T14:03:08;6.07;;;4.33;;
74630;SDS011;63138;55.082;38.804;2023-12-20T14:05:36;8.52;;;3.95;;
74630;SDS011;63138;55.082;38.804;2023-12-20T14:08:03;6.18;;;3.67;;
74630;SDS011;63138;55.082;38.804;2023-12-20T14:10:29;10.38;;;5.53;;
74630;SDS011;63138;55.082;38.804;2023-12-20T14:12:55;10.30;;;7.10;;
74630;SDS011;63138;55.082;38.804;2023-12-20T14:15:21;13.73;;;6.47;;
74630;SDS011;63138;55.082;38.804;2023-12-20T14:17:51;18.05;;;8.20;;
74630;SDS011;63138;55.082;38.804;2023-12-20T14:20:17;13.25;;;7.60;;
74630;SDS011;63138;55.082;38.804;2023-12-20T14:22:43;14.90;;;9.18;;
74630;SDS011;63138;55.082;38.804;2023-12-20T14:25:13;12.25;;;8.20;;
74630;SDS011;63138;55.082;38.804;2023-12-20T14:27:41;14.17;;;9.43;;
74630;SDS011;63138;55.082;38.804;2023-12-20T14:30:09;11.93;;;7.85;;
74630;SDS011;63138;55.082;38.804;2023-12-20T14:32:35;11.02;;;6.32;;
74630;SDS011;63138;55.082;38.804;2023-12-20T14:35:05;8.65;;;5.22;;
74630;SDS011;63138;55.082;38.804;2023-12-20T14:37:34;9.27;;;6.63;;
74630;SDS011;63138;55.082;38.804;2023-12-20T14:40:01;5.23;;;4.17;;
74630;SDS011;63138;55.082;38.804;2023-12-20T14:42:27;7.18;;;4.20;;
74630;SDS011;63138;55.082;38.804;2023-12-20T14:44:56;4.38;;;3.50;;